createdAt,value
2022-08-19T00:01:59.453Z,96216.50
2022-08-19T00:04:31.836Z,96212.53
2022-08-19T00:07:02.387Z,96227.81
2022-08-19T00:09:31.342Z,96206.38
2022-08-19T00:12:00.638Z,96213.41
2022-08-19T00:14:32.667Z,96206.97
2022-08-19T00:17:03.912Z,96219.28
2022-08-19T00:19:32.896Z,96217.91
2022-08-19T00:22:03.483Z,96213.63
2022-08-19T00:24:31.727Z,96212.81
2022-08-19T00:27:00.650Z,96210.72
2022-08-19T00:29:52.487Z,96214.50
2022-08-19T00:32:21.707Z,96212.91
2022-08-19T00:34:49.877Z,96201.66
2022-08-19T00:37:19.606Z,96192.75
2022-08-19T00:39:49.178Z,96188.78
2022-08-19T00:42:17.510Z,96187.97
2022-08-19T00:44:45.706Z,96170.00
2022-08-19T00:47:14.461Z,96170.59
2022-08-19T00:49:52.277Z,96173.78
2022-08-19T00:52:29.825Z,96178.63
2022-08-19T00:54:59.271Z,96178.13
2022-08-19T00:57:34.385Z,96182.41
2022-08-19T01:00:04.077Z,96184.28
2022-08-19T01:02:34.169Z,96196.38
2022-08-19T01:05:04.348Z,96204.34
2022-08-19T01:07:37.919Z,96198.22
2022-08-19T01:10:11.108Z,96199.28
2022-08-19T01:12:40.362Z,96195.59
2022-08-19T01:15:12.711Z,96199.06
2022-08-19T01:17:43.717Z,96197.47
2022-08-19T01:20:16.019Z,96201.56
2022-08-19T01:22:49.970Z,96193.72
2022-08-19T01:25:22.651Z,96195.59
2022-08-19T01:27:53.844Z,96184.75
2022-08-19T01:30:28.383Z,96184.38
2022-08-19T01:32:57.853Z,96179.88
2022-08-19T01:35:29.567Z,96182.34
2022-08-19T01:38:08.270Z,96178.00
2022-08-19T01:40:41.306Z,96168.56
2022-08-19T01:43:09.720Z,96178.81
2022-08-19T01:45:38.458Z,96187.13
2022-08-19T01:48:06.784Z,96190.59
2022-08-19T01:50:36.297Z,96183.66
2022-08-19T01:53:09.376Z,96191.78
2022-08-19T01:55:41.670Z,96179.50
2022-08-19T01:58:14.419Z,96188.09
2022-08-19T02:00:43.854Z,96181.09
2022-08-19T02:03:12.299Z,96183.00
2022-08-19T02:05:42.296Z,96177.13
2022-08-19T02:08:12.433Z,96181.91
2022-08-19T02:10:44.596Z,96203.16
2022-08-19T02:13:14.324Z,96199.09
2022-08-19T02:15:42.602Z,96196.19
2022-08-19T02:18:10.742Z,96188.13
2022-08-19T02:20:40.393Z,96181.72
2022-08-19T02:23:13.568Z,96177.41
2022-08-19T02:25:47.381Z,96186.06
2022-08-19T02:28:18.537Z,96179.69
2022-08-19T02:30:47.774Z,96180.19
2022-08-19T02:33:16.247Z,96179.94
2022-08-19T02:35:45.388Z,96182.91
2022-08-19T02:38:28.225Z,96170.38
2022-08-19T02:41:01.629Z,96175.97
2022-08-19T02:43:33.803Z,96166.81
2022-08-19T02:46:03.743Z,96160.53
2022-08-19T02:48:33.785Z,96165.81
2022-08-19T02:51:01.910Z,96159.06
2022-08-19T02:53:30.480Z,96162.03
2022-08-19T02:55:59.876Z,96161.31
2022-08-19T02:58:28.631Z,96167.75
2022-08-19T03:00:58.528Z,96175.53
2022-08-19T03:03:27.374Z,96177.09
2022-08-19T03:06:10.737Z,96180.06
2022-08-19T03:08:39.611Z,96186.81
2022-08-19T03:11:15.819Z,96192.41
2022-08-19T03:13:44.697Z,96190.66
2022-08-19T03:16:14.353Z,96178.28
2022-08-19T03:18:42.621Z,96182.31
2022-08-19T03:21:12.373Z,96172.91
2022-08-19T03:23:41.051Z,96180.44
2022-08-19T03:26:16.639Z,96181.00
2022-08-19T03:28:51.291Z,96187.38
2022-08-19T03:31:44.320Z,96186.97
2022-08-19T03:34:20.156Z,96184.22
2022-08-19T03:36:49.147Z,96174.06
2022-08-19T03:39:17.901Z,96175.94
2022-08-19T03:41:49.925Z,96176.25
2022-08-19T03:44:39.521Z,96180.34
2022-08-19T03:47:07.786Z,96183.59
2022-08-19T03:49:37.480Z,96184.84
2022-08-19T03:52:08.352Z,96178.97
2022-08-19T03:54:38.882Z,96178.19
2022-08-19T03:57:09.897Z,96173.63
2022-08-19T03:59:40.358Z,96180.91
2022-08-19T04:02:12.062Z,96194.91
2022-08-19T04:04:42.550Z,96202.66
2022-08-19T04:07:11.850Z,96204.00
2022-08-19T04:09:39.975Z,96206.69
2022-08-19T04:12:10.159Z,96208.88
2022-08-19T04:14:38.320Z,96208.66
2022-08-19T04:17:06.651Z,96208.06
2022-08-19T04:19:36.547Z,96211.34
2022-08-19T04:22:05.886Z,96208.34
2022-08-19T04:24:35.375Z,96200.56
2022-08-19T04:27:04.149Z,96205.63
2022-08-19T04:29:34.088Z,96199.47
2022-08-19T04:32:08.459Z,96203.22
2022-08-19T04:35:15.821Z,96204.00
2022-08-19T04:37:29.576Z,96192.00
2022-08-19T04:40:20.782Z,96198.44
2022-08-19T04:42:48.899Z,96197.34
2022-08-19T04:45:18.313Z,96194.38
2022-08-19T04:47:49.133Z,96190.41
2022-08-19T04:50:26.847Z,96204.00
2022-08-19T04:52:56.907Z,96202.13
2022-08-19T04:55:26.439Z,96197.88
2022-08-19T04:57:54.659Z,96202.13
2022-08-19T05:00:24.274Z,96207.00
2022-08-19T05:02:52.557Z,96207.50
2022-08-19T05:05:21.757Z,96210.16
2022-08-19T05:07:49.898Z,96209.38
2022-08-19T05:10:18.090Z,96209.69
2022-08-19T05:12:46.137Z,96219.28
2022-08-19T05:15:14.446Z,96228.72
2022-08-19T05:18:04.144Z,96235.09
2022-08-19T05:20:49.797Z,96235.94
2022-08-19T05:23:20.646Z,96238.63
2022-08-19T05:25:51.094Z,96243.47
2022-08-19T05:28:19.392Z,96243.97
2022-08-19T05:30:49.028Z,96252.00
2022-08-19T05:33:18.763Z,96257.81
2022-08-19T05:35:47.130Z,96264.28
2022-08-19T05:38:15.174Z,96282.50
2022-08-19T05:40:43.757Z,96282.50
2022-08-19T05:43:11.844Z,96299.13
2022-08-19T05:45:44.177Z,96301.78
2022-08-19T05:48:13.322Z,96290.03
2022-08-19T05:50:46.245Z,96287.28
2022-08-19T05:53:15.283Z,96279.81
2022-08-19T05:55:43.352Z,96284.44
2022-08-19T05:58:11.436Z,96292.41
2022-08-19T06:00:40.974Z,96291.91
2022-08-19T06:03:12.415Z,96288.38
2022-08-19T06:05:50.223Z,96291.06
2022-08-19T06:08:34.594Z,96288.13
2022-08-19T06:11:20.594Z,96290.06
2022-08-19T06:13:51.887Z,96280.91
2022-08-19T06:16:27.858Z,96286.53
2022-08-19T06:18:58.323Z,96285.38
2022-08-19T06:21:30.589Z,96288.66
2022-08-19T06:24:00.567Z,96280.09
2022-08-19T06:26:28.960Z,96273.16
2022-08-19T06:28:57.403Z,96285.72
2022-08-19T06:31:29.195Z,96277.69
2022-08-19T06:33:57.295Z,96277.94
2022-08-19T06:36:34.847Z,96283.03
2022-08-19T06:39:05.335Z,96277.13
2022-08-19T06:41:37.408Z,96273.66
2022-08-19T06:44:13.386Z,96279.81
2022-08-19T06:46:43.270Z,96279.53
2022-08-19T06:49:14.946Z,96280.34
2022-08-19T06:51:47.312Z,96288.66
2022-08-19T06:54:20.009Z,96280.56
2022-08-19T06:56:48.672Z,96287.22
2022-08-19T06:59:21.003Z,96285.28
2022-08-19T07:01:53.146Z,96290.13
2022-08-19T07:04:24.670Z,96282.59
2022-08-19T07:07:12.498Z,96285.50
2022-08-19T07:09:51.776Z,96283.91
2022-08-19T07:12:32.254Z,96293.25
2022-08-19T07:15:00.613Z,96289.34
2022-08-19T07:17:29.622Z,96292.47
2022-08-19T07:20:05.421Z,96302.59
2022-08-19T07:22:36.779Z,96307.47
2022-08-19T07:25:07.542Z,96308.81
2022-08-19T07:27:35.934Z,96298.88
2022-08-19T07:30:05.835Z,96308.22
2022-08-19T07:32:33.982Z,96311.97
2022-08-19T07:35:04.202Z,96303.94
2022-08-19T07:37:33.514Z,96305.28
2022-08-19T07:40:04.266Z,96310.13
2022-08-19T07:42:32.661Z,96317.31
2022-08-19T07:45:01.029Z,96316.53
2022-08-19T07:47:48.779Z,96318.66
2022-08-19T07:50:19.321Z,96306.28
2022-08-19T07:52:48.846Z,96307.09
2022-08-19T07:55:40.352Z,96301.81
2022-08-19T07:58:13.850Z,96310.00
2022-08-19T08:00:42.553Z,96313.13
2022-08-19T08:03:11.076Z,96316.38
2022-08-19T08:05:57.106Z,96320.56
2022-08-19T08:08:44.293Z,96316.50
2022-08-19T08:11:20.043Z,96318.13
2022-08-19T08:14:00.322Z,96316.22
2022-08-19T08:16:30.881Z,96312.25
2022-08-19T08:19:00.188Z,96312.25
2022-08-19T08:21:29.450Z,96314.44
2022-08-19T08:23:57.509Z,96320.28
2022-08-19T08:26:27.875Z,96316.75
2022-08-19T08:28:57.209Z,96323.78
2022-08-19T08:31:25.494Z,96324.00
2022-08-19T08:33:53.662Z,96330.66
2022-08-19T08:36:21.799Z,96337.47
2022-08-19T08:38:49.990Z,96331.47
2022-08-19T08:41:30.162Z,96331.81
2022-08-19T08:43:59.103Z,96336.16
2022-08-19T08:46:37.165Z,96343.31
2022-08-19T08:49:18.285Z,96342.25
2022-08-19T08:52:00.011Z,96334.88
2022-08-19T08:54:40.487Z,96338.13
2022-08-19T08:57:36.922Z,96345.06
2022-08-19T09:00:17.141Z,96339.16
2022-08-19T09:02:50.825Z,96338.34
2022-08-19T09:05:22.494Z,96338.50
2022-08-19T09:08:02.705Z,96326.97
2022-08-19T09:10:44.423Z,96332.28
2022-08-19T09:13:23.637Z,96336.72
2022-08-19T09:15:59.068Z,96337.56
2022-08-19T09:18:29.836Z,96338.31
2022-08-19T09:20:58.170Z,96342.66
2022-08-19T09:23:26.987Z,96333.72
2022-08-19T09:25:55.624Z,96350.63
2022-08-19T09:28:26.975Z,96341.72
2022-08-19T09:30:55.522Z,96347.88
2022-08-19T09:33:23.602Z,96343.31
2022-08-19T09:35:53.722Z,96349.69
2022-08-19T09:38:22.492Z,96350.22
2022-08-19T09:40:51.274Z,96344.84
2022-08-19T09:43:33.695Z,96347.75
2022-08-19T09:46:10.805Z,96345.34
2022-08-19T09:48:40.406Z,96348.31
2022-08-19T09:51:12.030Z,96349.19
2022-08-19T09:53:41.194Z,96347.81
2022-08-19T09:56:10.002Z,96353.91
2022-08-19T09:58:39.487Z,96355.13
2022-08-19T10:01:10.303Z,96355.91
2022-08-19T10:03:39.216Z,96357.81
2022-08-19T10:06:14.674Z,96349.97
2022-08-19T10:08:50.301Z,96354.47
2022-08-19T10:11:28.386Z,96353.31
2022-08-19T10:14:06.741Z,96356.00
2022-08-19T10:16:40.007Z,96345.78
2022-08-19T10:19:08.286Z,96349.75
2022-08-19T10:21:36.422Z,96352.41
2022-08-19T10:24:09.514Z,96362.03
2022-08-19T10:26:42.879Z,96355.31
2022-08-19T10:29:12.442Z,96352.84
2022-08-19T10:32:00.636Z,96349.06
2022-08-19T10:34:31.180Z,96353.66
2022-08-19T10:37:02.062Z,96357.84
2022-08-19T10:39:33.740Z,96343.47
2022-08-19T10:42:13.891Z,96342.25
2022-08-19T10:44:42.717Z,96333.44
2022-08-19T10:47:17.799Z,96329.88
2022-08-19T10:50:12.939Z,96327.31
2022-08-19T10:52:49.611Z,96321.34
2022-08-19T10:55:40.383Z,96329.63
2022-08-19T10:58:14.255Z,96317.31
2022-08-19T11:00:43.759Z,96312.66
2022-08-19T11:03:13.704Z,96310.31
2022-08-19T11:05:42.188Z,96324.84
2022-08-19T11:08:18.202Z,96313.72
2022-08-19T11:11:00.091Z,96313.13
2022-08-19T11:13:29.443Z,96311.22
2022-08-19T11:16:06.788Z,96308.81
2022-08-19T11:18:38.906Z,96308.63
2022-08-19T11:21:13.920Z,96316.00
2022-08-19T11:23:42.885Z,96312.22
2022-08-19T11:26:11.265Z,96299.59
2022-08-19T11:28:40.309Z,96311.81
2022-08-19T11:31:13.693Z,96309.94
2022-08-19T11:33:47.085Z,96313.91
2022-08-19T11:36:17.371Z,96309.22
2022-08-19T11:38:46.898Z,96319.50
2022-08-19T11:41:15.043Z,96322.19
2022-08-19T11:43:43.835Z,96318.41
2022-08-19T11:46:14.961Z,96316.31
2022-08-19T11:48:44.666Z,96316.81
2022-08-19T11:51:19.324Z,96323.25
2022-08-19T11:53:48.346Z,96323.25
2022-08-19T11:56:16.847Z,96312.91
2022-08-19T11:58:45.049Z,96319.09
2022-08-19T12:01:16.404Z,96311.34
2022-08-19T12:03:47.136Z,96317.81
2022-08-19T12:06:18.809Z,96315.81
2022-08-19T12:08:48.390Z,96315.31
2022-08-19T12:11:16.897Z,96311.03
2022-08-19T12:13:47.055Z,96308.53
2022-08-19T12:16:18.523Z,96306.34
2022-08-19T12:18:49.315Z,96297.66
2022-08-19T12:21:22.043Z,96288.84
2022-08-19T12:23:55.692Z,96288.75
2022-08-19T12:26:25.342Z,96286.22
2022-08-19T12:28:53.520Z,96284.91
2022-08-19T12:31:22.787Z,96292.53
2022-08-19T12:33:53.395Z,96281.47
2022-08-19T12:36:22.926Z,96285.84
2022-08-19T12:38:52.176Z,96293.34
2022-08-19T12:41:23.154Z,96283.97
2022-08-19T12:43:51.809Z,96286.88
2022-08-19T12:46:22.290Z,96289.31
2022-08-19T12:48:55.526Z,96301.03
2022-08-19T12:51:24.448Z,96296.03
2022-08-19T12:53:52.459Z,96301.75
2022-08-19T12:56:23.165Z,96300.03
2022-08-19T12:58:52.992Z,96296.72
2022-08-19T13:01:22.916Z,96302.09
2022-08-19T13:03:51.517Z,96296.47
2022-08-19T13:06:21.181Z,96298.13
2022-08-19T13:08:49.239Z,96302.78
2022-08-19T13:11:21.837Z,96306.22
2022-08-19T13:13:51.921Z,96300.31
2022-08-19T13:16:22.867Z,96299.53
2022-08-19T13:18:52.297Z,96293.78
2022-08-19T13:21:23.785Z,96300.28
2022-08-19T13:23:52.905Z,96302.66
2022-08-19T13:26:21.091Z,96293.06
2022-08-19T13:29:03.146Z,96297.84
2022-08-19T13:31:52.098Z,96305.53
2022-08-19T13:34:27.490Z,96305.53
2022-08-19T13:37:00.745Z,96301.13
2022-08-19T13:39:29.848Z,96304.59
2022-08-19T13:42:00.143Z,96304.13
2022-08-19T13:44:30.538Z,96311.09
2022-08-19T13:47:06.595Z,96309.06
2022-08-19T13:49:36.792Z,96307.94
2022-08-19T13:52:07.762Z,96304.44
2022-08-19T13:54:35.892Z,96312.03
2022-08-19T13:57:04.008Z,96310.41
2022-08-19T13:59:32.755Z,96307.38
2022-08-19T14:02:01.475Z,96308.22
2022-08-19T14:04:29.569Z,96317.34
2022-08-19T14:06:57.626Z,96310.06
2022-08-19T14:09:26.996Z,96314.22
2022-08-19T14:11:55.266Z,96324.53
2022-08-19T14:14:23.575Z,96314.66
2022-08-19T14:16:52.834Z,96312.94
2022-08-19T14:19:21.142Z,96311.66
2022-08-19T14:21:49.259Z,96310.69
2022-08-19T14:24:17.377Z,96317.78
2022-08-19T14:26:46.818Z,96325.13
2022-08-19T14:29:14.843Z,96319.44
2022-08-19T14:31:44.140Z,96313.38
2022-08-19T14:34:13.573Z,96315.94
2022-08-19T14:36:42.789Z,96317.03
2022-08-19T14:39:11.354Z,96314.16
2022-08-19T14:41:43.058Z,96306.88
2022-08-19T14:44:13.509Z,96307.84
2022-08-19T14:46:42.228Z,96307.72
2022-08-19T14:49:19.414Z,96302.16
2022-08-19T14:51:47.939Z,96311.34
2022-08-19T14:54:16.002Z,96302.97
2022-08-19T14:56:44.306Z,96309.34
2022-08-19T14:59:13.743Z,96305.03
2022-08-19T15:01:42.244Z,96300.75
2022-08-19T15:04:10.675Z,96299.72
2022-08-19T15:06:39.115Z,96302.09
2022-08-19T15:09:07.677Z,96294.50
2022-08-19T15:11:36.224Z,96295.16
2022-08-19T15:14:06.259Z,96294.88
2022-08-19T15:16:35.682Z,96300.78
2022-08-19T15:19:03.765Z,96300.25
2022-08-19T15:21:32.378Z,96296.47
2022-08-19T15:24:01.794Z,96298.41
2022-08-19T15:26:33.173Z,96296.97
2022-08-19T15:29:01.646Z,96298.44
2022-08-19T15:31:32.994Z,96304.50
2022-08-19T15:34:02.419Z,96298.03
2022-08-19T15:36:31.345Z,96302.78
2022-08-19T15:39:00.028Z,96311.53
2022-08-19T15:41:31.549Z,96302.47
2022-08-19T15:44:03.798Z,96304.81
2022-08-19T15:46:34.297Z,96305.13
2022-08-19T15:49:03.929Z,96303.88
2022-08-19T15:51:35.395Z,96304.38
2022-08-19T15:54:03.722Z,96313.22
2022-08-19T15:56:46.387Z,96316.50
2022-08-19T15:59:47.377Z,96310.00
2022-08-19T16:02:33.939Z,96317.44
2022-08-19T16:05:21.195Z,96316.28
2022-08-19T16:07:49.330Z,96315.31
2022-08-19T16:10:26.879Z,96317.72
2022-08-19T16:12:57.354Z,96321.22
2022-08-19T16:15:27.311Z,96317.09
2022-08-19T16:17:57.189Z,96312.03
2022-08-19T16:20:27.835Z,96315.31
2022-08-19T16:22:58.348Z,96311.94
2022-08-19T16:25:29.070Z,96317.75
2022-08-19T16:28:07.778Z,96318.38
2022-08-19T16:30:39.011Z,96317.25
2022-08-19T16:33:07.705Z,96320.09
2022-08-19T16:35:37.363Z,96325.16
2022-08-19T16:38:06.884Z,96324.50
2022-08-19T16:40:35.928Z,96323.03
2022-08-19T16:43:04.398Z,96322.09
2022-08-19T16:45:32.940Z,96321.34
2022-08-19T16:48:00.981Z,96322.06
2022-08-19T16:50:48.150Z,96327.75
2022-08-19T16:53:25.473Z,96338.53
2022-08-19T16:55:57.754Z,96338.03
2022-08-19T16:58:28.495Z,96335.34
2022-08-19T17:01:02.050Z,96339.75
2022-08-19T17:03:36.467Z,96344.66
2022-08-19T17:06:18.513Z,96344.66
2022-08-19T17:08:52.490Z,96341.75
2022-08-19T17:11:22.228Z,96347.78
2022-08-19T17:13:51.158Z,96348.84
2022-08-19T17:16:24.449Z,96348.06
2022-08-19T17:18:53.660Z,96348.69
2022-08-19T17:21:23.601Z,96348.69
2022-08-19T17:23:53.124Z,96349.09
2022-08-19T17:26:21.229Z,96346.88
2022-08-19T17:28:53.397Z,96351.78
2022-08-19T17:31:24.710Z,96352.09
2022-08-19T17:33:53.254Z,96342.13
2022-08-19T17:36:25.331Z,96348.00
2022-08-19T17:38:56.735Z,96352.56
2022-08-19T17:41:26.825Z,96355.09
2022-08-19T17:43:55.376Z,96358.88
2022-08-19T17:46:23.406Z,96360.78
2022-08-19T17:48:56.895Z,96362.06
2022-08-19T17:51:40.368Z,96353.22
2022-08-19T17:54:12.206Z,96353.50
2022-08-19T17:56:40.445Z,96357.88
2022-08-19T17:59:13.941Z,96361.97
2022-08-19T18:01:53.723Z,96357.19
2022-08-19T18:04:24.780Z,96366.38
2022-08-19T18:06:54.963Z,96365.56
2022-08-19T18:09:41.717Z,96366.47
2022-08-19T18:12:13.310Z,96371.66
2022-08-19T18:14:42.458Z,96368.78
2022-08-19T18:17:13.766Z,96377.47
2022-08-19T18:19:44.264Z,96380.25
2022-08-19T18:22:22.290Z,96381.97
2022-08-19T18:24:52.072Z,96384.44
2022-08-19T18:27:20.759Z,96384.75
2022-08-19T18:29:49.096Z,96391.03
2022-08-19T18:32:23.837Z,96395.44
2022-08-19T18:34:54.016Z,96398.19
2022-08-19T18:37:22.457Z,96395.91
2022-08-19T18:40:09.486Z,96400.66
2022-08-19T18:43:00.133Z,96398.25
2022-08-19T18:46:00.745Z,96403.34
2022-08-19T18:48:47.213Z,96411.53
2022-08-19T18:51:18.166Z,96410.31
2022-08-19T18:53:49.376Z,96413.69
2022-08-19T18:56:23.872Z,96405.53
2022-08-19T18:58:52.927Z,96412.28
2022-08-19T19:01:26.119Z,96411.53
2022-08-19T19:03:56.136Z,96412.69
2022-08-19T19:06:26.928Z,96411.09
2022-08-19T19:08:55.851Z,96417.97
2022-08-19T19:11:29.131Z,96422.84
2022-08-19T19:13:57.351Z,96417.47
2022-08-19T19:16:25.678Z,96424.81
2022-08-19T19:18:53.742Z,96427.59
2022-08-19T19:21:23.163Z,96428.59
2022-08-19T19:23:52.222Z,96422.09
2022-08-19T19:26:21.655Z,96433.84
2022-08-19T19:28:51.875Z,96427.19
2022-08-19T19:31:25.555Z,96436.78
2022-08-19T19:33:55.911Z,96437.66
2022-08-19T19:36:24.418Z,96440.72
2022-08-19T19:38:52.914Z,96439.75
2022-08-19T19:41:24.150Z,96448.59
2022-08-19T19:44:23.216Z,96449.88
2022-08-19T19:46:43.836Z,96449.19
2022-08-19T19:49:12.819Z,96444.03
2022-08-19T19:51:41.875Z,96448.69
2022-08-19T19:54:38.226Z,96460.81
2022-08-19T19:57:56.284Z,96455.03
2022-08-19T20:00:51.071Z,96466.00
2022-08-19T20:04:12.778Z,96462.97
2022-08-19T20:06:41.552Z,96465.66
2022-08-19T20:09:10.805Z,96473.19
2022-08-19T20:11:44.644Z,96462.59
2022-08-19T20:14:16.421Z,96462.38
2022-08-19T20:16:48.360Z,96476.31
2022-08-19T20:19:19.699Z,96470.13
2022-08-19T20:21:51.791Z,96470.94
2022-08-19T20:24:23.868Z,96473.13
2022-08-19T20:26:53.567Z,96467.81
2022-08-19T20:29:38.292Z,96475.22
2022-08-19T20:32:11.287Z,96472.47
2022-08-19T20:34:39.751Z,96473.78
2022-08-19T20:37:09.334Z,96473.31
2022-08-19T20:39:38.190Z,96479.16
2022-08-19T20:42:06.754Z,96478.38
2022-08-19T20:44:35.413Z,96472.81
2022-08-19T20:47:04.366Z,96483.44
2022-08-19T20:49:35.194Z,96476.25
2022-08-19T20:52:06.243Z,96478.13
2022-08-19T20:54:34.842Z,96474.78
2022-08-19T20:57:05.366Z,96481.38
2022-08-19T20:59:33.470Z,96487.25
2022-08-19T21:02:01.614Z,96488.66
2022-08-19T21:04:29.717Z,96481.88
2022-08-19T21:06:59.368Z,96491.28
2022-08-19T21:09:27.387Z,96484.88
2022-08-19T21:11:55.515Z,96497.06
2022-08-19T21:14:23.677Z,96502.56
2022-08-19T21:16:51.742Z,96498.84
2022-08-19T21:19:23.705Z,96497.19
2022-08-19T21:21:52.532Z,96506.44
2022-08-19T21:24:22.165Z,96497.28
2022-08-19T21:26:58.323Z,96500.06
2022-08-19T21:29:26.369Z,96498.28
2022-08-19T21:31:54.624Z,96499.88
2022-08-19T21:34:22.711Z,96503.38
2022-08-19T21:36:50.849Z,96504.22
2022-08-19T21:39:18.950Z,96506.34
2022-08-19T21:41:48.305Z,96506.91
2022-08-19T21:44:16.366Z,96509.34
2022-08-19T21:46:44.378Z,96515.34
2022-08-19T21:49:19.543Z,96508.84
2022-08-19T21:51:47.636Z,96506.16
2022-08-19T21:54:15.782Z,96507.31
2022-08-19T21:56:43.984Z,96508.47
2022-08-19T21:59:13.316Z,96520.16
2022-08-19T22:01:46.019Z,96521.75
2022-08-19T22:04:16.813Z,96512.38
2022-08-19T22:06:44.999Z,96508.84
2022-08-19T22:09:14.187Z,96516.16
2022-08-19T22:11:44.309Z,96514.25
2022-08-19T22:14:13.789Z,96517.19
2022-08-19T22:16:41.859Z,96522.97
2022-08-19T22:19:10.104Z,96531.56
2022-08-19T22:21:40.210Z,96521.81
2022-08-19T22:24:10.174Z,96527.47
2022-08-19T22:26:38.332Z,96524.50
2022-08-19T22:29:07.478Z,96528.88
2022-08-19T22:31:37.546Z,96520.28
2022-08-19T22:34:07.447Z,96522.47
2022-08-19T22:36:35.638Z,96526.81
2022-08-19T22:39:05.166Z,96530.31
2022-08-19T22:41:34.484Z,96528.22
2022-08-19T22:44:03.736Z,96537.00
2022-08-19T22:46:34.222Z,96538.59
2022-08-19T22:49:03.647Z,96542.88
2022-08-19T22:51:49.785Z,96539.16
2022-08-19T22:54:17.983Z,96538.94
2022-08-19T22:56:46.087Z,96537.56
2022-08-19T22:59:14.243Z,96530.81
2022-08-19T23:01:42.682Z,96533.41
2022-08-19T23:04:12.279Z,96545.25
2022-08-19T23:06:42.223Z,96530.28
2022-08-19T23:09:11.283Z,96532.69
2022-08-19T23:11:45.460Z,96535.66
2022-08-19T23:14:14.418Z,96534.69
2022-08-19T23:16:50.415Z,96538.22
2022-08-19T23:19:22.042Z,96525.06
2022-08-19T23:21:50.437Z,96533.97
2022-08-19T23:24:18.486Z,96525.16
2022-08-19T23:27:00.555Z,96533.50
2022-08-19T23:29:47.362Z,96532.72
2022-08-19T23:32:17.721Z,96533.00
2022-08-19T23:34:47.210Z,96531.41
2022-08-19T23:37:15.588Z,96534.91
2022-08-19T23:39:45.183Z,96536.56
2022-08-19T23:42:14.003Z,96533.59
2022-08-19T23:44:52.023Z,96537.47
2022-08-19T23:47:21.757Z,96535.06
2022-08-19T23:49:51.582Z,96536.16
2022-08-19T23:52:20.328Z,96536.22
2022-08-19T23:54:48.376Z,96538.09
2022-08-19T23:57:16.507Z,96535.69
2022-08-19T23:59:46.102Z,96534.66
